Time;durP1;ratioP1;P1;durP2;ratioP2;P2;SDS_P1;SDS_P2;PMS_P1;PMS_P2;Temp;Humidity;BMP_temperature;BMP_pressure;BME280_temperature;BME280_humidity;BME280_pressure;Samples;Min_cycle;Max_cycle;Signal;HPM_P1;HPM_P2
2021/11/04 00:01:30;;;;;;;19.00;9.80;;;;;;;8.92;73.50;98938.08;229843;1190;139870;-71
2021/11/04 00:06:33;;;;;;;19.00;11.40;;;;;;;8.88;73.69;98945.55;229844;1190;139434;-73
2021/11/04 00:15:43;;;;;;;;;;;;;;;;;;;;;
2021/11/04 00:20:55;;;;;;;16.30;10.50;;;;;;;8.57;74.68;98940.77;228256;1196;139123;-72
2021/11/04 00:25:58;;;;;;;14.60;10.50;;;;;;;8.52;75.05;98940.27;227831;1198;139321;-72
2021/11/04 00:31:18;;;;;;;;;;;;;;;;;;;;;
2021/11/04 00:36:27;;;;;;;15.10;9.90;;;;;;;8.52;75.49;98938.73;226668;1197;139639;-73
2021/11/04 00:41:42;;;;;;;13.60;9.60;;;;;;;8.44;75.62;98936.95;229845;1193;139174;-75
2021/11/04 00:46:54;;;;;;;16.10;11.60;;;;;;;8.39;75.79;98943.83;228614;1193;137490;-75
2021/11/04 00:51:57;;;;;;;17.50;10.70;;;;;;;8.38;76.08;98941.57;228332;1194;140210;-82
2021/11/04 00:57:05;;;;;;;16.60;9.60;;;;;;;8.36;75.86;98934.09;229013;1193;139086;-82
2021/11/04 01:02:08;;;;;;;16.70;12.00;;;;;;;8.35;76.10;98925.58;230266;1195;139260;-79
2021/11/04 01:07:11;;;;;;;14.80;10.50;;;;;;;8.37;76.24;98919.98;230273;1193;141067;-76
2021/11/04 01:12:15;;;;;;;15.90;10.20;;;;;;;8.34;76.43;98914.31;229044;1193;233888;-79
2021/11/04 01:17:21;;;;;;;15.80;10.50;;;;;;;8.32;76.60;98905.32;230120;1193;139339;-71
2021/11/04 01:22:24;;;;;;;13.60;9.50;;;;;;;8.30;76.60;98895.51;228635;1192;140387;-80
2021/11/04 01:27:26;;;;;;;17.20;9.90;;;;;;;8.30;76.43;98898.05;228769;1194;139518;-75
2021/11/04 01:32:53;;;;;;;12.50;9.60;;;;;;;8.30;76.51;98898.38;228943;1194;138653;-80
2021/11/04 01:38:06;;;;;;;12.60;10.20;;;;;;;8.27;76.77;98903.96;228766;1193;139688;-77
2021/11/04 01:43:09;;;;;;;15.80;10.20;;;;;;;8.24;76.92;98907.23;228904;1194;138989;-77
2021/11/04 01:48:19;;;;;;;11.30;8.70;;;;;;;8.29;77.23;98904.95;228913;1195;139732;-72
2021/11/04 01:53:26;;;;;;;12.30;9.50;;;;;;;8.33;77.36;98887.45;228101;1196;141373;-77
2021/11/04 01:58:31;;;;;;;14.20;10.70;;;;;;;8.27;77.07;98887.33;228660;1194;138950;-76
2021/11/04 02:04:06;;;;;;;13.40;10.20;;;;;;;8.26;77.54;98877.65;228236;1194;138661;-77
2021/11/04 02:09:25;;;;;;;15.40;10.60;;;;;;;8.24;77.43;98868.34;228444;1195;141512;-76
2021/11/04 02:14:49;;;;;;;13.80;10.30;;;;;;;8.28;77.60;98857.19;229373;1195;139250;-78
2021/11/04 02:20:03;;;;;;;14.20;10.10;;;;;;;8.34;77.57;98849.98;229604;1192;139901;-78
2021/11/04 02:25:27;;;;;;;14.70;11.10;;;;;;;8.33;77.74;98848.95;230020;1192;139021;-81
2021/11/04 02:30:32;;;;;;;13.30;10.30;;;;;;;8.33;77.71;98838.40;228761;1192;139749;-80
2021/11/04 02:35:55;;;;;;;25.40;15.80;;;;;;;8.32;77.64;98825.78;228683;1192;139513;-70
2021/11/04 02:41:02;;;;;;;19.80;12.70;;;;;;;8.32;77.73;98816.69;230092;1192;140478;-75
2021/11/04 02:46:06;;;;;;;18.60;13.60;;;;;;;8.32;77.61;98814.36;229890;1192;141104;-73
2021/11/04 02:51:10;;;;;;;14.60;12.70;;;;;;;8.34;77.91;98812.17;229266;1192;140275;-74
2021/11/04 02:56:13;;;;;;;16.60;11.90;;;;;;;8.33;78.07;98792.03;229891;1192;140323;-74
2021/11/04 03:01:16;;;;;;;14.50;11.10;;;;;;;8.34;77.99;98774.41;229856;1192;139790;-70
2021/11/04 03:06:30;;;;;;;14.90;12.70;;;;;;;8.35;78.01;98752.12;229836;1192;141147;-77
2021/11/04 03:11:34;;;;;;;20.00;11.20;;;;;;;8.39;77.94;98731.91;230860;1192;140695;-81
2021/11/04 03:16:40;;;;;;;17.10;11.20;;;;;;;8.44;78.06;98730.70;231005;1192;140014;-76
2021/11/04 03:36:29;;;;;;;17.70;11.70;;;;;;;8.26;78.80;98720.28;231145;1211;683022;-76
2021/11/04 03:41:34;;;;;;;16.40;11.50;;;;;;;8.23;78.81;98711.58;228242;1196;139362;-73
2021/11/04 03:46:42;;;;;;;12.90;9.10;;;;;;;8.29;78.93;98705.60;226827;1198;139863;-77
2021/11/04 03:52:02;;;;;;;12.30;10.00;;;;;;;8.38;79.07;98702.77;227227;1197;138690;-77
2021/11/04 03:57:05;;;;;;;14.60;10.70;;;;;;;8.46;79.26;98701.98;228225;1196;138945;-73
2021/11/04 04:02:40;;;;;;;15.00;11.30;;;;;;;8.51;79.15;98686.96;227135;1196;138567;-71
2021/11/04 04:07:44;;;;;;;14.90;10.20;;;;;;;8.52;79.12;98684.23;228900;1195;139807;-77
2021/11/04 04:13:19;;;;;;;13.50;10.10;;;;;;;8.56;79.11;98687.81;227645;1195;138926;-77
2021/11/04 04:18:25;;;;;;;15.00;10.80;;;;;;;8.62;78.88;98693.69;228717;1196;139988;-74
2021/11/04 04:23:40;;;;;;;11.50;10.30;;;;;;;8.68;78.98;98689.19;227591;1195;140564;-75
2021/11/04 04:28:57;;;;;;;15.50;11.20;;;;;;;8.72;78.98;98687.44;227696;1196;140615;-74
2021/11/04 04:34:02;;;;;;;15.50;12.40;;;;;;;8.74;78.87;98674.17;228872;1192;140101;-77
2021/11/04 04:39:08;;;;;;;11.80;9.80;;;;;;;8.74;78.74;98656.85;228659;1193;140932;-77
2021/11/04 04:44:36;;;;;;;17.60;11.10;;;;;;;8.76;78.85;98691.14;228772;1193;235768;-74
2021/11/04 04:49:46;;;;;;;13.80;8.80;;;;;;;8.78;78.68;98671.45;230353;1192;140719;-72
2021/11/04 04:55:08;;;;;;;12.50;9.10;;;;;;;8.75;78.69;98656.55;231079;1192;138700;-76
2021/11/04 05:00:21;;;;;;;13.10;9.30;;;;;;;8.74;78.53;98641.12;230541;1193;150148;-80
2021/11/04 05:05:48;;;;;;;15.20;9.10;;;;;;;8.76;78.32;98621.21;229748;1192;139056;-80
2021/11/04 05:10:51;;;;;;;15.10;9.50;;;;;;;8.84;78.25;98611.89;231125;1192;139709;-76
2021/11/04 05:16:35;;;;;;;9.80;8.80;;;;;;;8.88;78.35;98600.42;231091;1191;139789;-74
2021/11/04 05:21:59;;;;;;;9.30;8.20;;;;;;;8.90;78.07;98593.33;229516;1192;139159;-80
2021/11/04 05:27:04;;;;;;;10.20;7.60;;;;;;;8.88;77.67;98593.04;229584;1192;138899;-79
2021/11/04 05:32:22;;;;;;;;;;;;;;;;;;;;;
2021/11/04 05:37:33;;;;;;;12.20;8.30;;;;;;;8.87;77.86;98597.77;230438;1192;139530;-76
2021/11/04 05:42:39;;;;;;;10.30;7.50;;;;;;;8.85;77.78;98589.69;229388;1192;138687;-74
2021/11/04 05:47:53;;;;;;;9.00;7.60;;;;;;;8.84;77.66;98577.45;228899;1193;139077;-77
2021/11/04 05:53:00;;;;;;;11.70;8.00;;;;;;;8.84;77.47;98572.94;229105;1192;142208;-77
2021/11/04 05:58:42;;;;;;;11.50;7.50;;;;;;;8.83;77.51;98577.71;229478;1192;139096;-71
2021/11/04 06:03:51;;;;;;;13.20;8.60;;;;;;;8.85;77.63;98570.13;229844;1192;138618;-76
2021/11/04 06:08:59;;;;;;;12.60;8.00;;;;;;;8.86;77.42;98566.04;228953;1192;138998;-74
2021/11/04 06:20:44;;;;;;;10.40;7.90;;;;;;;8.93;77.35;98570.55;229653;1192;140112;-79
2021/11/04 06:25:47;;;;;;;7.40;4.80;;;;;;;8.92;77.31;98558.80;230075;1192;138980;-80
2021/11/04 06:30:52;;;;;;;9.10;7.10;;;;;;;8.94;77.10;98553.71;230002;1192;139846;-75
2021/11/04 06:35:56;;;;;;;9.30;7.20;;;;;;;8.97;77.00;98539.55;230123;1192;139362;-72
2021/11/04 06:41:20;;;;;;;8.30;6.20;;;;;;;9.02;76.85;98523.55;229786;1192;139931;-74
2021/11/04 06:46:28;;;;;;;10.90;6.40;;;;;;;9.04;76.96;98517.98;230290;1192;139425;-74
2021/11/04 06:51:40;;;;;;;10.70;7.20;;;;;;;9.05;76.97;98516.08;231102;1192;139142;-76
2021/11/04 06:56:46;;;;;;;7.80;6.30;;;;;;;9.08;76.98;98511.00;229581;1192;139523;-76
2021/11/04 07:01:59;;;;;;;8.30;6.70;;;;;;;9.09;77.09;98506.22;230792;1192;139801;-76
2021/11/04 07:07:07;;;;;;;7.40;6.70;;;;;;;9.05;77.24;98498.11;231057;1192;139475;-76
2021/11/04 07:12:14;;;;;;;9.70;6.30;;;;;;;9.03;77.34;98498.19;231165;1191;139075;-76
2021/11/04 07:17:19;;;;;;;10.50;6.30;;;;;;;9.04;77.63;98482.89;230754;1192;141119;-78
2021/11/04 07:22:37;;;;;;;9.00;7.00;;;;;;;9.04;77.59;98476.30;231261;1192;139871;-77
2021/11/04 07:27:54;;;;;;;9.90;6.70;;;;;;;9.11;77.70;98470.83;230984;1192;139711;-76
2021/11/04 07:33:27;;;;;;;10.00;7.70;;;;;;;9.17;77.81;98461.34;229801;1192;140244;-75
2021/11/04 07:38:33;;;;;;;7.30;6.40;;;;;;;9.18;78.08;98454.90;230046;1192;140197;-74
2021/11/04 07:43:36;;;;;;;7.50;6.70;;;;;;;9.15;78.14;98457.72;230495;1192;140206;-76
2021/11/04 07:48:48;;;;;;;7.40;6.70;;;;;;;9.15;78.12;98438.37;230857;1192;140952;-74
2021/11/04 07:54:17;;;;;;;7.80;6.00;;;;;;;9.21;78.33;98437.90;229805;1192;139605;-76
2021/11/04 07:59:27;;;;;;;12.80;7.50;;;;;;;9.30;78.22;98437.63;228998;1192;141054;-76
2021/11/04 08:04:48;;;;;;;12.10;7.30;;;;;;;9.36;78.31;98439.33;230324;1192;139208;-74
2021/11/04 08:10:08;;;;;;;;;;;;;;;;;;;;;
2021/11/04 08:15:44;;;;;;;;;;;;;;;;;;;;;
2021/11/04 08:20:57;;;;;;;14.00;8.80;;;;;;;9.44;78.56;98411.77;229033;1193;141799;-72
2021/11/04 08:25:58;;;;;;;11.70;8.70;;;;;;;9.51;78.55;98418.58;229150;1192;140393;-76
2021/11/04 08:31:04;;;;;;;14.20;8.30;;;;;;;9.52;78.44;98416.94;229255;1192;141443;-73
2021/11/04 08:36:55;;;;;;;;;;;;;;;;;;;;;
2021/11/04 08:42:07;;;;;;;10.20;7.90;;;;;;;9.57;78.67;98390.41;229473;1192;140194;-73
2021/11/04 08:47:10;;;;;;;9.30;5.30;;;;;;;9.57;78.63;98381.48;229454;1192;139152;-71
2021/11/04 08:52:30;;;;;;;;;;;;;;;;;;;;;
2021/11/04 08:58:03;;;;;;;12.30;7.40;;;;;;;9.52;79.19;98359.80;230244;1191;139959;-74
2021/11/04 09:03:08;;;;;;;14.50;8.60;;;;;;;9.61;79.24;98356.05;230127;1192;139147;-75
2021/11/04 09:08:11;;;;;;;10.00;5.70;;;;;;;9.71;79.27;98348.44;230963;1191;139987;-74
2021/11/04 09:13:30;;;;;;;8.00;6.70;;;;;;;9.81;79.43;98342.27;231142;1192;139687;-73
2021/11/04 09:18:33;;;;;;;10.10;7.00;;;;;;;10.03;79.60;98323.62;231011;1191;138734;-73
2021/11/04 09:23:35;;;;;;;6.20;5.40;;;;;;;10.28;79.51;98313.48;229206;1192;140174;-71
2021/11/04 09:28:38;;;;;;;12.80;7.50;;;;;;;10.44;79.34;98306.20;230109;1191;140900;-71
2021/11/04 09:33:44;;;;;;;6.50;5.50;;;;;;;10.46;79.27;98296.56;231087;1191;138723;-81
2021/11/04 09:38:56;;;;;;;8.40;6.60;;;;;;;10.47;79.29;98285.59;229297;1191;138582;-74
2021/11/04 10:00:07;;;;;;;7.60;6.70;;;;;;;10.44;79.75;98306.32;231724;1211;662416;-76
2021/11/04 10:05:18;;;;;;;12.40;7.10;;;;;;;10.43;79.73;98292.95;226653;1198;138966;-72
2021/11/04 10:10:21;;;;;;;9.50;6.40;;;;;;;10.49;79.88;98262.77;227554;1198;140881;-76
2021/11/04 10:15:26;;;;;;;10.50;5.90;;;;;;;10.58;79.78;98240.54;226996;1184;139792;-77
2021/11/04 10:20:31;;;;;;;7.40;5.30;;;;;;;10.61;79.83;98254.19;228910;1198;139234;-73
2021/11/04 10:25:37;;;;;;;11.50;7.40;;;;;;;10.63;79.76;98244.42;228211;1198;140823;-76
2021/11/04 10:30:43;;;;;;;8.40;6.70;;;;;;;10.70;79.83;98229.52;229183;1198;139664;-76
2021/11/04 10:36:16;;;;;;;7.70;6.20;;;;;;;10.84;79.57;98216.14;229472;1198;139149;-77
2021/11/04 10:41:21;;;;;;;7.40;5.90;;;;;;;11.03;79.44;98216.64;229151;1199;138770;-77
2021/11/04 10:47:04;;;;;;;;;;;;;;;;;;;;;
2021/11/04 10:52:33;;;;;;;7.80;5.40;;;;;;;11.58;79.29;98187.06;229275;1198;138043;-77
2021/11/04 10:58:18;;;;;;;9.10;5.30;;;;;;;11.79;79.14;98180.77;229345;1198;140527;-74
2021/11/04 11:03:45;;;;;;;;;;;;;;;;;;;;;
2021/11/04 11:09:24;;;;;;;6.00;4.80;;;;;;;12.02;78.49;98157.39;228907;1198;139233;-71
2021/11/04 11:15:01;;;;;;;7.60;6.00;;;;;;;12.20;78.07;98156.96;227246;1198;139723;-72
2021/11/04 11:20:15;;;;;;;9.80;5.40;;;;;;;12.29;77.88;98147.38;227500;1198;139329;-75
2021/11/04 11:25:40;;;;;;;6.70;4.50;;;;;;;12.30;77.94;98140.80;226877;1199;139155;-76
2021/11/04 11:31:49;;;;;;;8.60;4.30;;;;;;;12.28;77.57;98137.08;226499;1200;142892;-75
2021/11/04 11:37:44;;;;;;;6.30;4.60;;;;;;;12.22;77.75;98146.84;228126;1193;140150;-70
2021/11/04 11:43:08;;;;;;;8.80;3.90;;;;;;;12.19;77.34;98146.50;227813;1195;140113;-69
2021/11/04 11:48:20;;;;;;;9.20;4.20;;;;;;;12.12;77.33;98146.83;228075;1193;139078;-73
2021/11/04 11:53:39;;;;;;;4.70;4.00;;;;;;;12.09;77.27;98144.14;227464;1196;230951;-74
2021/11/04 11:58:47;;;;;;;6.30;3.70;;;;;;;12.10;77.18;98129.91;228802;1195;140539;-70
2021/11/04 12:04:18;;;;;;;;;;;;;;;12.14;77.27;98121.54;227378;1193;139010;-73
2021/11/04 12:09:59;;;;;;;6.60;4.70;;;;;;;12.19;77.47;98135.87;228882;1195;126154;-77
2021/11/04 12:15:04;;;;;;;6.10;4.10;;;;;;;12.28;77.20;98137.61;227581;1195;138741;-69
2021/11/04 12:20:23;;;;;;;5.90;5.10;;;;;;;12.34;77.18;98118.95;227740;1193;138338;-72
2021/11/04 12:25:33;;;;;;;8.30;4.30;;;;;;;12.35;77.09;98106.66;227272;1195;139371;-71
2021/11/04 12:30:42;;;;;;;12.10;5.20;;;;;;;12.36;77.01;98098.30;227649;1195;140589;-72
2021/11/04 12:35:50;;;;;;;9.80;4.50;;;;;;;12.38;76.95;98090.73;229349;1195;139681;-70
2021/11/04 12:41:22;;;;;;;8.30;5.00;;;;;;;12.41;76.94;98086.91;230218;1194;139466;-77
2021/11/04 12:46:33;;;;;;;11.00;5.70;;;;;;;12.51;76.57;98092.20;229468;1193;140079;-72
2021/11/04 12:51:51;;;;;;;5.40;3.70;;;;;;;12.59;76.48;98092.98;230109;1195;139814;-75
2021/11/04 12:57:47;;;;;;;6.80;4.70;;;;;;;12.60;76.05;98094.05;229730;1193;139205;-70
2021/11/04 13:02:51;;;;;;;6.70;5.60;;;;;;;12.71;76.30;98092.36;228978;1195;140782;-75
2021/11/04 13:08:01;;;;;;;10.40;6.20;;;;;;;12.76;75.93;98112.23;229561;1194;139244;-73
2021/11/04 13:13:38;;;;;;;5.90;4.20;;;;;;;12.78;75.97;98116.23;229389;1193;140570;-73
2021/11/04 13:18:45;;;;;;;9.70;4.60;;;;;;;12.75;75.74;98106.05;228788;1195;140258;-76
2021/11/04 13:23:49;;;;;;;15.20;7.10;;;;;;;12.72;75.96;98110.25;227486;1193;139648;-76
2021/11/04 13:29:02;;;;;;;10.10;5.30;;;;;;;12.75;75.99;98116.84;228611;1194;139955;-75
2021/11/04 13:35:16;;;;;;;11.70;5.50;;;;;;;12.74;75.97;98118.61;228697;1194;140167;-74
2021/11/04 13:40:17;;;;;;;6.50;4.60;;;;;;;12.77;75.94;98135.32;227866;1195;140422;-72
2021/11/04 13:46:03;;;;;;;9.70;4.40;;;;;;;12.80;75.64;98135.94;227498;1195;140170;-75
2021/11/04 13:51:25;;;;;;;9.30;4.50;;;;;;;12.79;75.60;98143.05;228373;1195;140083;-74
2021/11/04 13:57:20;;;;;;;6.80;4.20;;;;;;;12.86;75.52;98151.45;228088;1193;140389;-75
2021/11/04 14:02:25;;;;;;;7.10;4.30;;;;;;;12.97;75.93;98141.14;227733;1195;138869;-75
2021/11/04 14:08:01;;;;;;;7.20;4.50;;;;;;;13.09;75.88;98142.52;228203;1193;139082;-73
2021/11/04 14:13:04;;;;;;;6.20;4.40;;;;;;;13.18;76.04;98129.52;228719;1193;142217;-75
2021/11/04 14:18:22;;;;;;;7.50;4.60;;;;;;;13.16;75.94;98118.73;227255;1195;140737;-74
2021/11/04 14:23:49;;;;;;;;;;;;;;;13.09;75.98;98108.50;229067;1193;139715;-76
2021/11/04 14:28:56;;;;;;;6.60;4.50;;;;;;;12.96;76.16;98117.23;229152;1195;126464;-75
2021/11/04 14:33:59;;;;;;;5.60;3.90;;;;;;;12.92;76.59;98132.75;228937;1193;139876;-70
2021/11/04 14:39:26;;;;;;;4.30;2.50;;;;;;;12.80;76.26;98143.82;228134;1195;139126;-75
2021/11/04 14:44:29;;;;;;;6.50;5.50;;;;;;;12.65;76.26;98159.90;227361;1195;140191;-77
2021/11/04 14:49:35;;;;;;;4.40;3.60;;;;;;;12.53;76.43;98162.29;229326;1193;140537;-78
2021/11/04 14:54:44;;;;;;;5.60;4.40;;;;;;;12.44;76.65;98173.52;230223;1194;139360;-78
2021/11/04 14:59:54;;;;;;;5.20;4.20;;;;;;;12.42;76.71;98182.52;229177;1193;141433;-74
2021/11/04 15:05:21;;;;;;;7.30;5.00;;;;;;;12.44;76.89;98195.60;228589;1195;139203;-81
2021/11/04 15:10:32;;;;;;;7.20;3.90;;;;;;;12.42;76.83;98202.98;227672;1195;138949;-82
2021/11/04 15:15:37;;;;;;;6.10;4.00;;;;;;;12.41;76.73;98208.92;229223;1193;139972;-77
2021/11/04 15:20:54;;;;;;;4.10;2.90;;;;;;;12.43;76.84;98219.39;229114;1195;140042;-78
2021/11/04 15:26:17;;;;;;;4.20;2.70;;;;;;;12.45;77.12;98261.75;227909;1195;139256;-76
2021/11/04 15:31:22;;;;;;;2.00;1.90;;;;;;;12.45;76.31;98286.17;227768;1195;140293;-75
2021/11/04 15:36:56;;;;;;;;;;;;;;;;;;;;;
2021/11/04 15:41:59;;;;;;;1.10;1.00;;;;;;;12.08;73.75;98343.39;227979;1195;138395;-77
2021/11/04 15:47:03;;;;;;;1.30;0.80;;;;;;;11.89;73.23;98347.52;227923;1194;139941;-70
2021/11/04 15:52:28;;;;;;;2.30;1.60;;;;;;;11.68;72.36;98365.50;228460;1195;151460;-76
2021/11/04 15:58:14;;;;;;;;;;;;;;;;;;;;;
2021/11/04 16:03:47;;;;;;;1.00;0.80;;;;;;;11.32;71.72;98390.79;228539;1195;138984;-75
2021/11/04 16:08:51;;;;;;;0.80;0.80;;;;;;;11.21;71.20;98404.02;228109;1196;141085;-73
2021/11/04 16:14:22;;;;;;;1.00;0.90;;;;;;;11.03;70.64;98412.58;228838;1194;138682;-71
2021/11/04 16:19:26;;;;;;;2.30;0.80;;;;;;;10.82;70.32;98415.70;227835;1195;140751;-79
2021/11/04 16:24:29;;;;;;;2.40;1.30;;;;;;;10.60;70.00;98422.85;229250;1195;139207;-77
2021/11/04 16:29:33;;;;;;;1.80;1.10;;;;;;;10.41;69.92;98432.48;227929;1195;138647;-74
2021/11/04 16:34:47;;;;;;;;;;;;;;;;;;;;;
2021/11/04 16:40:23;;;;;;;1.60;1.30;;;;;;;10.10;69.61;98430.48;230030;1195;139114;-71
2021/11/04 16:45:26;;;;;;;1.20;1.20;;;;;;;10.02;69.82;98448.42;230228;1194;139258;-75
2021/11/04 16:51:20;;;;;;;;;;;;;;;;;;;;;
2021/11/04 16:56:26;;;;;;;2.70;1.50;;;;;;;9.95;69.52;98459.05;230041;1195;141340;-72
2021/11/04 17:01:28;;;;;;;7.20;1.60;;;;;;;9.86;69.32;98486.63;230288;1194;139068;-74
2021/11/04 17:06:55;;;;;;;3.00;1.50;;;;;;;9.81;69.35;98499.77;229199;1193;139077;-71
2021/11/04 17:12:00;;;;;;;2.00;1.20;;;;;;;9.74;69.22;98504.42;228873;1194;138447;-69
2021/11/04 17:17:06;;;;;;;1.90;1.30;;;;;;;9.66;69.25;98511.52;228524;1193;139559;-83
2021/11/04 17:23:17;;;;;;;1.40;1.10;;;;;;;9.60;69.09;98514.84;229595;1192;139371;-71
2021/11/04 17:28:44;;;;;;;0.70;0.70;;;;;;;9.55;68.86;98524.80;228316;1195;139297;-79
2021/11/04 17:33:47;;;;;;;1.30;1.10;;;;;;;9.49;68.69;98529.77;228951;1192;138401;-74
2021/11/04 17:38:50;;;;;;;1.50;0.80;;;;;;;9.42;68.67;98549.96;228923;1193;138169;-75
2021/11/04 17:43:53;;;;;;;2.30;0.90;;;;;;;9.35;68.51;98559.10;228706;1192;139177;-82
2021/11/04 17:49:00;;;;;;;1.50;1.40;;;;;;;9.34;68.47;98563.73;228124;1193;140638;-77
2021/11/04 17:54:11;;;;;;;1.40;1.20;;;;;;;9.28;68.38;98564.84;229146;1193;138780;-75
2021/11/04 17:59:17;;;;;;;2.30;1.10;;;;;;;9.22;68.40;98568.77;229196;1192;138798;-74
2021/11/04 18:04:21;;;;;;;1.00;1.00;;;;;;;9.15;68.36;98572.73;228791;1192;138545;-79
2021/11/04 18:09:35;;;;;;;1.50;1.00;;;;;;;9.14;68.22;98581.18;229129;1193;139201;-72
2021/11/04 18:14:39;;;;;;;1.60;1.20;;;;;;;9.10;68.35;98582.27;228968;1192;138546;-79
2021/11/04 18:19:42;;;;;;;1.00;0.80;;;;;;;9.07;68.37;98594.52;230240;1192;139964;-70
2021/11/04 18:24:45;;;;;;;0.60;0.60;;;;;;;9.05;68.29;98597.95;230099;1193;140210;-71
2021/11/04 18:29:52;;;;;;;1.60;0.80;;;;;;;9.05;68.23;98594.02;230510;1192;139416;-76
2021/11/04 18:34:59;;;;;;;1.30;1.00;;;;;;;9.09;68.00;98595.23;230335;1192;140216;-74
2021/11/04 18:40:03;;;;;;;1.30;1.20;;;;;;;9.10;68.09;98599.59;230677;1193;139893;-81
2021/11/04 18:45:09;;;;;;;0.90;0.90;;;;;;;9.08;68.14;98598.83;230744;1192;140941;-71
2021/11/04 18:50:13;;;;;;;1.40;1.20;;;;;;;9.04;68.10;98604.31;229831;1192;140120;-76
2021/11/04 18:55:17;;;;;;;3.40;1.40;;;;;;;9.01;67.98;98606.25;230621;1192;141222;-72
2021/11/04 19:00:21;;;;;;;2.10;1.80;;;;;;;9.03;68.04;98615.15;231044;1191;143772;-77
2021/11/04 19:05:31;;;;;;;2.30;1.30;;;;;;;9.02;68.22;98617.79;229507;1193;140060;-72
2021/11/04 19:10:36;;;;;;;5.90;2.70;;;;;;;8.98;68.27;98627.11;230188;1192;139102;-72
2021/11/04 19:15:49;;;;;;;3.60;2.10;;;;;;;8.88;68.38;98628.19;228415;1192;141614;-73
2021/11/04 19:21:26;;;;;;;;;;;;;;;;;;;;;
2021/11/04 19:26:31;;;;;;;3.30;2.30;;;;;;;8.79;68.84;98636.55;230057;1192;139258;-81
2021/11/04 19:31:34;;;;;;;2.10;1.90;;;;;;;8.71;68.98;98636.30;230110;1192;140450;-73
2021/11/04 19:36:43;;;;;;;3.30;2.00;;;;;;;8.64;69.04;98640.14;228642;1193;140552;-73
2021/11/04 19:41:50;;;;;;;4.50;3.10;;;;;;;8.55;68.87;98636.77;228229;1193;140262;-69
2021/11/04 19:46:58;;;;;;;4.90;2.60;;;;;;;8.52;69.11;98635.45;229235;1192;141910;-68
2021/11/04 19:52:27;;;;;;;4.20;3.10;;;;;;;8.43;69.14;98642.88;228473;1193;140127;-70
2021/11/04 19:57:54;;;;;;;2.90;2.20;;;;;;;8.34;69.55;98657.04;229023;1191;139663;-69
2021/11/04 20:02:58;;;;;;;16.30;3.30;;;;;;;8.25;69.24;98664.46;228958;1192;139571;-68
2021/11/04 20:08:15;;;;;;;;;;;;;;;;;;;;;
2021/11/04 20:13:19;;;;;;;3.20;2.50;;;;;;;8.21;69.48;98676.95;229549;1192;161310;-73
2021/11/04 20:18:23;;;;;;;4.70;2.60;;;;;;;8.19;69.76;98693.73;228616;1193;139711;-75
2021/11/04 20:23:26;;;;;;;7.00;3.10;;;;;;;8.14;69.82;98697.23;228420;1193;141992;-69
2021/11/04 20:28:44;;;;;;;4.30;2.40;;;;;;;8.09;69.98;98706.91;229404;1193;140332;-70
2021/11/04 20:33:51;;;;;;;4.00;2.60;;;;;;;8.07;69.88;98709.90;229273;1192;161244;-71
2021/11/04 20:38:55;;;;;;;4.40;2.90;;;;;;;8.04;69.70;98720.69;229625;1193;141201;-74
2021/11/04 20:44:00;;;;;;;3.10;2.20;;;;;;;8.02;70.00;98723.16;229845;1192;141500;-73
2021/11/04 20:49:03;;;;;;;5.40;2.30;;;;;;;7.97;69.85;98732.89;228993;1193;139395;-76
2021/11/04 20:54:07;;;;;;;5.40;2.50;;;;;;;7.93;70.02;98735.94;230126;1193;139633;-70
2021/11/04 20:59:12;;;;;;;2.60;2.00;;;;;;;7.92;69.93;98732.15;230294;1193;139673;-68
2021/11/04 21:04:15;;;;;;;3.00;2.50;;;;;;;7.95;69.85;98737.64;230658;1192;141477;-71
2021/11/04 21:09:19;;;;;;;7.50;2.30;;;;;;;7.93;70.18;98733.77;230571;1192;140346;-81
2021/11/04 21:14:23;;;;;;;3.00;2.60;;;;;;;7.91;69.91;98730.69;230313;1191;138835;-70
2021/11/04 21:19:30;;;;;;;1.80;1.40;;;;;;;7.91;69.92;98736.31;230497;1192;139194;-72
2021/11/04 21:24:38;;;;;;;2.50;2.30;;;;;;;7.91;69.95;98736.11;229679;1192;140799;-75
2021/11/04 21:29:41;;;;;;;2.10;1.90;;;;;;;7.89;70.14;98740.48;229239;1193;139539;-70
2021/11/04 21:34:44;;;;;;;2.60;2.20;;;;;;;7.85;70.20;98741.68;228861;1193;140686;-80
2021/11/04 21:39:47;;;;;;;5.90;3.10;;;;;;;7.83;70.52;98750.35;229023;1192;139215;-77
2021/11/04 21:44:50;;;;;;;5.10;2.90;;;;;;;7.87;70.31;98757.52;229447;1192;141026;-72
2021/11/04 21:49:59;;;;;;;4.90;3.10;;;;;;;7.87;70.35;98765.39;229324;1192;152163;-74
2021/11/04 21:55:06;;;;;;;3.60;2.20;;;;;;;7.86;70.38;98768.02;229124;1193;152798;-78
2021/11/04 22:00:15;;;;;;;3.50;2.70;;;;;;;7.86;70.37;98767.74;228821;1193;141760;-78
2021/11/04 22:05:28;;;;;;;5.10;3.70;;;;;;;7.87;70.25;98768.41;229081;1193;139686;-79
2021/11/04 22:10:31;;;;;;;3.50;2.00;;;;;;;7.89;70.07;98766.85;228877;1193;139684;-74
2021/11/04 22:15:37;;;;;;;7.90;6.70;;;;;;;7.89;70.36;98770.45;228195;1193;140213;-71
2021/11/04 22:20:47;;;;;;;4.40;3.30;;;;;;;7.86;69.93;98772.42;228220;1193;139995;-74
2021/11/04 22:25:55;;;;;;;120.50;54.30;;;;;;;7.85;70.19;98779.73;229452;1192;139687;-74
2021/11/04 22:31:09;;;;;;;58.90;29.70;;;;;;;7.84;70.20;98792.61;229002;1193;138890;-72
2021/11/04 22:36:29;;;;;;;2.50;2.30;;;;;;;7.80;69.67;98802.67;228769;1193;138811;-74
2021/11/04 22:41:33;;;;;;;12.10;11.30;;;;;;;7.85;69.63;98815.77;229821;1192;140731;-79
2021/11/04 22:46:39;;;;;;;3.80;3.60;;;;;;;7.89;69.75;98829.96;229597;1192;141304;-75
2021/11/04 22:51:43;;;;;;;3.20;2.40;;;;;;;7.93;69.64;98834.27;228760;1193;138699;-77
2021/11/04 22:57:00;;;;;;;3.10;2.80;;;;;;;7.97;69.68;98845.89;230418;1193;140302;-74
2021/11/04 23:02:06;;;;;;;1.80;1.70;;;;;;;8.08;69.60;98847.89;230434;1192;139500;-74
2021/11/04 23:07:17;;;;;;;1.90;1.80;;;;;;;8.18;69.40;98855.98;230665;1192;138976;-74
2021/11/04 23:12:21;;;;;;;2.20;2.10;;;;;;;8.25;69.04;98868.77;230307;1193;139160;-74
2021/11/04 23:17:27;;;;;;;1.70;1.60;;;;;;;8.29;69.08;98868.93;229418;1192;139355;-73
2021/11/04 23:22:54;;;;;;;1.70;1.10;;;;;;;8.35;68.95;98864.76;229316;1191;140358;-76
2021/11/04 23:28:04;;;;;;;1.60;1.50;;;;;;;8.40;68.83;98873.40;228270;1192;139223;-78
2021/11/04 23:33:08;;;;;;;2.10;1.50;;;;;;;8.42;68.74;98880.72;229934;1192;139206;-76
2021/11/04 23:38:11;;;;;;;1.90;1.30;;;;;;;8.44;68.80;98890.46;228811;1192;138881;-72
2021/11/04 23:43:27;;;;;;;1.80;1.40;;;;;;;8.47;68.65;98902.80;229151;1192;138606;-78
2021/11/04 23:48:35;;;;;;;1.20;1.20;;;;;;;8.54;68.36;98917.02;228015;1192;139928;-72
2021/11/04 23:53:46;;;;;;;1.20;1.10;;;;;;;8.55;68.53;98924.96;228749;1192;140392;-80
2021/11/04 23:58:57;;;;;;;1.30;1.10;;;;;;;8.53;68.62;98937.10;229100;1193;138904;-77
